Disclaimer

Please do not use the information listed here in-flight or in-navigation, as they are not provided to us by the airports but are provided by volunteers, so they might be outdated.

Search


Regions


Airport information page

Radio informations:
Tower (TWR) - 118.8 MHz

Airport informations:
Latitude: 14° 31' 15.66" N
Longitude: 091° 41' 50.12" W
Elevation: 656 feet - 200 meters
Operating hours: From sunrise to sunset (SR-SS)
Operating agency: Military-civil joint use airport
Timezone: UTC-6
Fuel: Jet A1, without icing nhibitor.

Runway information:
04/22 - 5065 x 100 feet< - >1544 x 30 meters

Recent METARs:
MGRT 191600Z 12004KT CAVOK 29/23 Q1016 A3000 BKN200 VOL. STA. MARIA Y SANTIAGUITO EN ACTIVIDAD
MGRT 191600Z 12004KT CAVOK 29/23 Q1016 A3000 BKN200 VOL. STA. MARIA Y SANTIAGUITO EN ACTIVIDAD
MGRT 191700Z 12006KT 8000 SCT200 31/22 Q1015 A2997 FU VOL. STA. MARIA Y SANTIAGUITO EN ACTIVIDAD

Airport on the map: